createdAt,value
2022-10-08T00:01:51.524Z,14.28
2022-10-08T00:04:22.704Z,14.35
2022-10-08T00:06:52.760Z,14.12
2022-10-08T00:09:25.540Z,14.48
2022-10-08T00:11:58.909Z,14.44
2022-10-08T00:14:33.948Z,14.51
2022-10-08T00:17:04.640Z,14.27
2022-10-08T00:19:35.640Z,14.25
2022-10-08T00:22:12.189Z,14.03
2022-10-08T00:24:44.853Z,14.13
2022-10-08T00:27:17.301Z,13.91
2022-10-08T00:29:52.732Z,13.89
2022-10-08T00:32:23.173Z,14.38
2022-10-08T00:34:54.670Z,14.38
2022-10-08T00:37:27.081Z,13.99
2022-10-08T00:39:56.140Z,13.78
2022-10-08T00:42:26.907Z,13.54
2022-10-08T00:45:02.102Z,14.02
2022-10-08T00:47:46.441Z,14.14
2022-10-08T00:50:27.067Z,14.14
2022-10-08T00:53:00.168Z,14.17
2022-10-08T00:55:30.250Z,13.72
2022-10-08T00:58:02.220Z,13.90
2022-10-08T01:00:33.779Z,13.77
2022-10-08T01:03:04.382Z,13.77
2022-10-08T01:05:51.636Z,13.66
2022-10-08T01:08:32.381Z,13.69
2022-10-08T01:11:11.504Z,13.41
2022-10-08T01:13:57.434Z,13.39
2022-10-08T01:16:35.108Z,13.47
2022-10-08T01:19:47.529Z,13.59
2022-10-08T01:22:40.676Z,13.86
2022-10-08T01:25:42.117Z,13.46
2022-10-08T01:28:43.856Z,13.29
2022-10-08T01:31:36.253Z,13.06
2022-10-08T01:34:09.696Z,13.36
2022-10-08T01:36:45.670Z,13.19
2022-10-08T01:39:19.592Z,13.01
2022-10-08T01:44:42.612Z,12.77
2022-10-08T01:47:15.053Z,13.05
2022-10-08T01:49:55.918Z,13.10
2022-10-08T01:52:29.027Z,13.23
2022-10-08T01:55:03.471Z,12.85
2022-10-08T01:57:34.031Z,13.08
2022-10-08T02:00:08.894Z,12.88
2022-10-08T02:02:41.396Z,12.86
2022-10-08T02:05:13.598Z,12.64
2022-10-08T02:07:44.952Z,12.83
2022-10-08T02:10:17.972Z,12.90
2022-10-08T02:12:48.440Z,12.73
2022-10-08T02:15:53.834Z,13.01
2022-10-08T02:18:38.375Z,12.52
2022-10-08T02:21:34.759Z,12.70
2022-10-08T02:24:13.784Z,12.62
2022-10-08T02:26:50.168Z,12.64
2022-10-08T02:29:34.078Z,12.69
2022-10-08T02:32:55.286Z,12.65
2022-10-08T02:35:32.591Z,12.90
2022-10-08T02:38:09.134Z,12.94
2022-10-08T02:40:40.652Z,12.71
2022-10-08T02:43:23.069Z,12.98
2022-10-08T02:46:11.997Z,12.60
2022-10-08T02:48:46.760Z,12.39
2022-10-08T02:51:17.907Z,12.69
2022-10-08T02:53:49.772Z,12.68
2022-10-08T02:56:21.490Z,12.75
2022-10-08T02:58:55.778Z,12.37
2022-10-08T03:01:45.161Z,12.10
2022-10-08T03:04:26.931Z,12.32
2022-10-08T03:06:58.597Z,12.19
2022-10-08T03:09:37.239Z,12.65
2022-10-08T03:12:07.402Z,12.87
2022-10-08T03:14:48.496Z,12.57
2022-10-08T03:17:25.024Z,12.75
2022-10-08T03:19:55.253Z,12.79
2022-10-08T03:22:25.385Z,12.13
2022-10-08T03:24:57.071Z,12.28
2022-10-08T03:27:28.917Z,12.54
2022-10-08T03:29:58.028Z,12.34
2022-10-08T03:32:27.688Z,12.23
2022-10-08T03:34:57.989Z,12.17
2022-10-08T03:37:29.936Z,12.36
2022-10-08T03:39:59.677Z,12.02
2022-10-08T03:42:29.397Z,12.07
2022-10-08T03:45:02.443Z,12.22
2022-10-08T03:47:33.276Z,11.78
2022-10-08T03:50:05.887Z,11.77
2022-10-08T03:52:34.800Z,12.00
2022-10-08T03:55:05.770Z,12.11
2022-10-08T03:57:34.871Z,12.05
2022-10-08T04:00:07.395Z,12.37
2022-10-08T04:02:39.080Z,12.16
2022-10-08T04:05:11.360Z,12.33
2022-10-08T04:07:43.718Z,12.26
2022-10-08T04:10:14.475Z,11.66
2022-10-08T04:12:45.441Z,11.70
2022-10-08T04:15:15.044Z,11.70
2022-10-08T04:17:46.664Z,11.70
2022-10-08T04:20:15.508Z,11.72
2022-10-08T04:22:47.165Z,11.98
2022-10-08T04:25:17.039Z,11.91
2022-10-08T04:27:50.543Z,11.51
2022-10-08T04:30:20.158Z,11.73
2022-10-08T04:32:49.679Z,11.84
2022-10-08T04:35:20.844Z,12.01
2022-10-08T04:37:52.473Z,11.98
2022-10-08T04:40:21.911Z,12.01
2022-10-08T04:42:53.398Z,11.62
2022-10-08T04:45:25.811Z,11.67
2022-10-08T04:47:55.245Z,11.58
2022-10-08T04:50:30.360Z,11.52
2022-10-08T04:53:01.145Z,11.36
2022-10-08T04:55:29.794Z,11.67
2022-10-08T04:57:59.231Z,11.46
2022-10-08T05:00:30.970Z,11.59
2022-10-08T05:03:00.112Z,11.70
2022-10-08T05:05:32.457Z,12.07
2022-10-08T05:08:02.433Z,12.06
2022-10-08T05:10:37.159Z,11.68
2022-10-08T05:13:07.042Z,11.94
2022-10-08T05:15:39.497Z,11.69
2022-10-08T05:18:10.601Z,11.74
2022-10-08T05:20:42.860Z,11.49
2022-10-08T05:23:14.159Z,11.50
2022-10-08T05:25:43.385Z,11.31
2022-10-08T05:28:12.667Z,11.26
2022-10-08T05:30:41.273Z,10.79
2022-10-08T05:33:12.512Z,10.57
2022-10-08T05:35:44.415Z,10.85
2022-10-08T05:38:13.731Z,11.13
2022-10-08T05:40:45.492Z,11.29
2022-10-08T05:43:17.128Z,11.53
2022-10-08T05:45:52.388Z,11.59
2022-10-08T05:48:21.801Z,11.67
2022-10-08T05:50:51.262Z,11.89
2022-10-08T05:53:20.472Z,11.94
2022-10-08T05:56:01.336Z,12.17
2022-10-08T05:58:34.527Z,12.17
2022-10-08T06:01:15.526Z,12.23
2022-10-08T06:03:49.749Z,12.42
2022-10-08T06:06:26.210Z,12.30
2022-10-08T06:09:06.866Z,12.18
2022-10-08T06:11:38.202Z,12.35
2022-10-08T06:14:15.434Z,12.38
2022-10-08T06:16:45.374Z,12.34
2022-10-08T06:19:17.970Z,12.55
2022-10-08T06:21:48.433Z,12.78
2022-10-08T06:24:19.787Z,12.89
2022-10-08T06:26:49.508Z,13.08
2022-10-08T06:29:22.817Z,13.32
2022-10-08T06:31:53.782Z,13.41
2022-10-08T06:34:27.272Z,13.45
2022-10-08T06:36:57.424Z,13.61
2022-10-08T06:39:34.193Z,13.64
2022-10-08T06:42:06.723Z,13.84
2022-10-08T06:44:39.768Z,14.33
2022-10-08T06:47:09.943Z,14.53
2022-10-08T06:49:40.497Z,14.75
2022-10-08T06:52:13.013Z,14.68
2022-10-08T06:54:43.451Z,15.07
2022-10-08T06:57:14.411Z,15.05
2022-10-08T06:59:46.197Z,15.14
2022-10-08T07:02:23.530Z,15.47
2022-10-08T07:04:55.082Z,15.62
2022-10-08T07:07:24.397Z,15.81
2022-10-08T07:09:55.165Z,15.87
2022-10-08T07:12:24.630Z,16.08
2022-10-08T07:14:57.309Z,16.24
2022-10-08T07:17:28.942Z,16.37
2022-10-08T07:19:58.489Z,16.65
2022-10-08T07:22:27.684Z,16.78
2022-10-08T07:24:57.606Z,16.89
2022-10-08T07:27:27.815Z,17.08
2022-10-08T07:29:57.302Z,17.10
2022-10-08T07:32:31.537Z,17.25
2022-10-08T07:35:00.579Z,17.33
2022-10-08T07:37:35.563Z,17.33
2022-10-08T07:40:05.277Z,17.74
2022-10-08T07:42:42.139Z,17.85
2022-10-08T07:45:15.012Z,17.82
2022-10-08T07:47:45.769Z,18.01
2022-10-08T07:50:14.758Z,17.85
2022-10-08T07:52:47.516Z,18.40
2022-10-08T07:55:16.969Z,18.43
2022-10-08T07:57:47.373Z,18.49
2022-10-08T08:00:21.563Z,18.61
2022-10-08T08:02:53.477Z,18.91
2022-10-08T08:05:23.627Z,19.14
2022-10-08T08:07:56.458Z,19.26
2022-10-08T08:10:25.767Z,19.37
2022-10-08T08:12:58.411Z,19.38
2022-10-08T08:15:27.467Z,19.48
2022-10-08T08:17:59.086Z,19.48
2022-10-08T08:20:28.414Z,19.51
2022-10-08T08:23:00.227Z,19.83
2022-10-08T08:25:31.228Z,20.01
2022-10-08T08:28:09.464Z,19.77
2022-10-08T08:30:38.645Z,19.96
2022-10-08T08:33:09.802Z,20.40
2022-10-08T08:35:39.908Z,20.31
2022-10-08T08:38:11.350Z,20.28
2022-10-08T08:40:39.904Z,20.41
2022-10-08T08:43:09.527Z,20.34
2022-10-08T08:45:46.996Z,20.64
2022-10-08T08:48:25.060Z,20.65
2022-10-08T08:50:56.676Z,20.73
2022-10-08T08:53:26.415Z,20.90
2022-10-08T08:56:00.791Z,21.01
2022-10-08T08:58:45.510Z,21.05
2022-10-08T09:01:45.971Z,21.32
2022-10-08T09:04:30.331Z,21.22
2022-10-08T09:07:00.099Z,21.64
2022-10-08T09:09:31.281Z,21.44
2022-10-08T09:12:07.152Z,21.57
2022-10-08T09:14:41.747Z,21.67
2022-10-08T09:17:19.600Z,21.70
2022-10-08T09:19:49.840Z,21.71
2022-10-08T09:22:26.835Z,22.12
2022-10-08T09:25:00.370Z,22.50
2022-10-08T09:27:51.849Z,22.08
2022-10-08T09:30:31.007Z,22.64
2022-10-08T09:33:03.644Z,22.08
2022-10-08T09:35:35.245Z,22.52
2022-10-08T09:38:07.594Z,22.50
2022-10-08T09:40:37.315Z,22.46
2022-10-08T09:43:12.556Z,22.68
2022-10-08T09:45:46.624Z,23.01
2022-10-08T09:48:29.789Z,22.90
2022-10-08T09:51:04.838Z,22.99
2022-10-08T09:53:45.191Z,22.96
2022-10-08T09:56:15.167Z,23.16
2022-10-08T09:58:55.272Z,23.20
2022-10-08T10:01:25.856Z,23.08
2022-10-08T10:03:58.842Z,23.48
2022-10-08T10:06:39.956Z,23.41
2022-10-08T10:09:46.718Z,23.22
2022-10-08T10:12:33.185Z,23.26
2022-10-08T10:15:20.740Z,22.92
2022-10-08T10:17:54.878Z,23.25
2022-10-08T10:20:47.915Z,23.44
2022-10-08T10:23:20.874Z,23.24
2022-10-08T10:25:51.050Z,23.04
2022-10-08T10:28:24.271Z,23.25
2022-10-08T10:31:05.834Z,23.68
2022-10-08T10:33:40.929Z,23.55
2022-10-08T10:36:14.686Z,23.52
2022-10-08T10:38:50.700Z,23.93
2022-10-08T10:41:49.980Z,23.96
2022-10-08T10:44:28.288Z,23.53
2022-10-08T10:47:02.147Z,23.68
2022-10-08T10:49:38.686Z,23.50
2022-10-08T10:52:43.051Z,23.45
2022-10-08T10:55:27.314Z,23.83
2022-10-08T10:58:01.291Z,24.16
2022-10-08T11:01:09.755Z,24.36
2022-10-08T11:03:58.005Z,24.38
2022-10-08T11:06:31.617Z,24.73
2022-10-08T11:09:43.159Z,24.17
2022-10-08T11:12:16.109Z,24.53
2022-10-08T11:15:16.938Z,25.07
2022-10-08T11:17:57.863Z,24.11
2022-10-08T11:20:40.134Z,23.71
2022-10-08T11:23:15.356Z,23.63
2022-10-08T11:26:16.494Z,24.23
2022-10-08T11:28:54.169Z,23.67
2022-10-08T11:31:47.587Z,24.14
2022-10-08T11:34:35.759Z,23.84
2022-10-08T11:37:14.656Z,23.63
2022-10-08T11:39:45.084Z,23.61
2022-10-08T11:42:17.429Z,23.93
2022-10-08T11:44:45.925Z,24.13
2022-10-08T11:47:43.301Z,24.49
2022-10-08T11:50:25.508Z,24.15
2022-10-08T11:53:06.836Z,24.22
2022-10-08T11:55:34.731Z,23.96
2022-10-08T11:58:09.220Z,24.43
2022-10-08T12:00:45.291Z,23.78
2022-10-08T12:03:30.471Z,23.85
2022-10-08T12:06:00.886Z,23.64
2022-10-08T12:09:05.857Z,23.57
2022-10-08T12:11:33.478Z,23.73
2022-10-08T12:14:18.395Z,23.90
2022-10-08T12:16:49.383Z,24.00
2022-10-08T12:19:32.876Z,24.28
2022-10-08T12:22:25.503Z,24.63
2022-10-08T12:24:59.090Z,24.00
2022-10-08T12:27:35.831Z,24.02
2022-10-08T12:30:12.142Z,24.48
2022-10-08T12:32:40.119Z,24.37
2022-10-08T12:35:20.150Z,24.26
2022-10-08T12:38:01.851Z,24.67
2022-10-08T12:40:53.128Z,24.48
2022-10-08T12:43:46.432Z,24.19
2022-10-08T12:46:40.444Z,24.40
2022-10-08T12:49:47.337Z,24.23
2022-10-08T12:52:20.128Z,24.11
2022-10-08T12:54:52.219Z,24.49
2022-10-08T12:57:34.669Z,24.34
2022-10-08T13:00:09.832Z,24.12
2022-10-08T13:02:41.860Z,23.99
2022-10-08T13:05:28.375Z,24.25
2022-10-08T13:07:56.615Z,23.92
2022-10-08T13:10:29.438Z,23.79
2022-10-08T13:13:05.949Z,24.04
2022-10-08T13:15:34.895Z,24.08
2022-10-08T13:18:20.076Z,23.97
2022-10-08T13:21:03.970Z,23.94
2022-10-08T13:23:41.394Z,23.98
2022-10-08T13:26:42.024Z,24.15
2022-10-08T13:29:23.921Z,24.00
2022-10-08T13:32:04.045Z,23.88
2022-10-08T13:34:39.427Z,23.99
2022-10-08T13:37:13.271Z,23.90
2022-10-08T13:39:43.686Z,23.99
2022-10-08T13:42:16.687Z,23.76
2022-10-08T13:44:49.097Z,24.01
2022-10-08T13:47:20.334Z,23.66
2022-10-08T13:49:49.124Z,23.70
2022-10-08T13:52:23.438Z,23.67
2022-10-08T13:54:58.964Z,24.18
2022-10-08T13:57:26.958Z,24.18
2022-10-08T13:59:56.489Z,23.63
2022-10-08T14:02:24.611Z,23.58
2022-10-08T14:04:53.750Z,23.93
2022-10-08T14:07:26.005Z,23.63
2022-10-08T14:09:56.435Z,23.48
2022-10-08T14:12:30.140Z,23.43
2022-10-08T14:14:59.224Z,23.76
2022-10-08T14:17:27.436Z,23.98
2022-10-08T14:19:55.674Z,23.85
2022-10-08T14:22:25.613Z,24.21
2022-10-08T14:24:54.139Z,23.93
2022-10-08T14:27:21.749Z,23.94
2022-10-08T14:29:50.503Z,23.81
2022-10-08T14:32:18.318Z,23.75
2022-10-08T14:34:46.784Z,23.81
2022-10-08T14:37:16.566Z,23.91
2022-10-08T14:39:45.823Z,24.11
2022-10-08T14:42:13.780Z,23.94
2022-10-08T14:44:43.190Z,24.17
2022-10-08T14:47:13.457Z,24.13
2022-10-08T14:49:41.973Z,23.78
2022-10-08T14:52:09.797Z,23.47
2022-10-08T14:54:38.372Z,23.61
2022-10-08T14:57:06.430Z,23.93
2022-10-08T14:59:39.901Z,23.65
2022-10-08T15:02:12.123Z,23.98
2022-10-08T15:04:43.573Z,24.14
2022-10-08T15:07:11.460Z,24.88
2022-10-08T15:09:40.727Z,25.45
2022-10-08T15:12:10.181Z,25.60
2022-10-08T15:14:38.581Z,25.95
2022-10-08T15:17:07.242Z,26.54
2022-10-08T15:19:35.797Z,26.59
2022-10-08T15:22:03.777Z,26.34
2022-10-08T15:24:31.882Z,26.21
2022-10-08T15:27:00.913Z,25.81
2022-10-08T15:29:28.682Z,25.53
2022-10-08T15:31:56.547Z,25.23
2022-10-08T15:34:27.215Z,25.03
2022-10-08T15:36:55.975Z,24.85
2022-10-08T15:39:25.320Z,24.68
2022-10-08T15:41:55.413Z,24.30
2022-10-08T15:44:24.402Z,24.25
2022-10-08T15:47:05.776Z,24.44
2022-10-08T15:49:41.901Z,24.17
2022-10-08T15:52:13.759Z,24.03
2022-10-08T15:54:42.956Z,24.04
2022-10-08T15:57:14.980Z,23.79
2022-10-08T15:59:44.304Z,23.92
2022-10-08T16:02:16.950Z,23.57
2022-10-08T16:04:47.662Z,22.75
2022-10-08T16:07:16.874Z,22.53
2022-10-08T16:09:45.469Z,21.96
2022-10-08T16:12:14.524Z,21.87
2022-10-08T16:14:43.489Z,21.44
2022-10-08T16:17:11.668Z,20.95
2022-10-08T16:19:42.091Z,20.77
2022-10-08T16:22:10.344Z,20.74
2022-10-08T16:24:38.347Z,21.09
2022-10-08T16:27:07.820Z,21.56
2022-10-08T16:29:35.503Z,21.62
2022-10-08T16:32:03.800Z,21.47
2022-10-08T16:34:33.435Z,21.47
2022-10-08T16:37:02.046Z,21.44
2022-10-08T16:39:29.890Z,21.32
2022-10-08T16:41:58.743Z,21.45
2022-10-08T16:44:27.450Z,21.38
2022-10-08T16:46:55.765Z,21.15
2022-10-08T16:49:26.815Z,21.12
2022-10-08T16:51:58.695Z,20.88
2022-10-08T16:54:28.746Z,20.61
2022-10-08T16:56:57.215Z,20.39
2022-10-08T16:59:27.211Z,20.53
2022-10-08T17:01:59.378Z,20.35
2022-10-08T17:04:28.685Z,20.03
2022-10-08T17:06:58.269Z,20.23
2022-10-08T17:09:27.245Z,19.78
2022-10-08T17:11:56.013Z,19.80
2022-10-08T17:14:26.713Z,19.85
2022-10-08T17:16:54.783Z,19.75
2022-10-08T17:19:22.493Z,19.62
2022-10-08T17:21:51.949Z,19.15
2022-10-08T17:24:19.998Z,19.33
2022-10-08T17:26:49.299Z,19.42
2022-10-08T17:29:20.455Z,19.35
2022-10-08T17:31:48.445Z,19.27
2022-10-08T17:34:17.163Z,19.37
2022-10-08T17:36:47.210Z,19.73
2022-10-08T17:39:15.716Z,19.79
2022-10-08T17:41:43.686Z,19.27
2022-10-08T17:44:14.008Z,19.22
2022-10-08T17:46:46.219Z,18.97
2022-10-08T17:49:16.883Z,19.41
2022-10-08T17:51:45.224Z,19.24
2022-10-08T17:54:19.272Z,19.52
2022-10-08T17:56:48.730Z,19.02
2022-10-08T17:59:19.836Z,19.33
2022-10-08T18:01:49.373Z,19.27
2022-10-08T18:04:19.667Z,18.69
2022-10-08T18:06:49.217Z,18.59
2022-10-08T18:09:21.278Z,18.63
2022-10-08T18:11:52.374Z,18.83
2022-10-08T18:14:22.440Z,18.87
2022-10-08T18:16:51.273Z,18.93
2022-10-08T18:19:19.734Z,18.97
2022-10-08T18:22:03.652Z,18.77
2022-10-08T18:24:38.653Z,19.03
2022-10-08T18:27:07.583Z,18.98
2022-10-08T18:29:36.712Z,18.56
2022-10-08T18:32:04.223Z,18.34
2022-10-08T18:34:32.402Z,18.12
2022-10-08T18:37:00.484Z,18.07
2022-10-08T18:39:28.923Z,18.28
2022-10-08T18:41:57.494Z,18.23
2022-10-08T18:44:28.203Z,18.07
2022-10-08T18:47:03.069Z,17.73
2022-10-08T18:49:34.185Z,18.06
2022-10-08T18:52:04.370Z,18.22
2022-10-08T18:54:33.492Z,18.18
2022-10-08T18:57:01.859Z,18.37
2022-10-08T18:59:32.439Z,17.90
2022-10-08T19:02:01.151Z,17.96
2022-10-08T19:04:29.256Z,17.80
2022-10-08T19:06:58.057Z,17.92
2022-10-08T19:09:32.889Z,17.85
2022-10-08T19:12:03.486Z,18.02
2022-10-08T19:14:31.518Z,17.86
2022-10-08T19:17:00.490Z,17.74
2022-10-08T19:19:32.141Z,17.60
2022-10-08T19:22:02.308Z,17.77
2022-10-08T19:24:39.945Z,17.79
2022-10-08T19:27:09.446Z,17.44
2022-10-08T19:29:39.403Z,17.49
2022-10-08T19:32:07.491Z,17.44
2022-10-08T19:34:35.866Z,17.62
2022-10-08T19:37:04.914Z,17.48
2022-10-08T19:39:34.508Z,17.36
2022-10-08T19:42:02.921Z,17.26
2022-10-08T19:44:33.722Z,16.92
2022-10-08T19:47:04.175Z,16.61
2022-10-08T19:49:40.468Z,16.98
2022-10-08T19:52:09.260Z,16.99
2022-10-08T19:54:50.765Z,17.34
2022-10-08T19:57:19.108Z,17.40
2022-10-08T19:59:49.902Z,17.32
2022-10-08T20:02:18.370Z,17.42
2022-10-08T20:04:48.013Z,17.26
2022-10-08T20:07:15.772Z,17.27
2022-10-08T20:09:44.042Z,17.19
2022-10-08T20:12:13.503Z,16.72
2022-10-08T20:14:42.938Z,16.92
2022-10-08T20:17:14.718Z,16.96
2022-10-08T20:19:45.620Z,16.88
2022-10-08T20:22:16.117Z,16.32
2022-10-08T20:24:45.215Z,16.58
2022-10-08T20:27:16.049Z,16.79
2022-10-08T20:29:46.744Z,16.77
2022-10-08T20:32:15.874Z,16.56
2022-10-08T20:34:44.246Z,16.55
2022-10-08T20:37:14.396Z,16.18
2022-10-08T20:39:42.205Z,16.25
2022-10-08T20:42:09.640Z,16.50
2022-10-08T20:44:37.516Z,16.66
2022-10-08T20:47:07.385Z,16.91
2022-10-08T20:49:36.276Z,16.69
2022-10-08T20:52:04.698Z,16.90
2022-10-08T20:54:34.056Z,16.48
2022-10-08T20:57:02.021Z,16.22
2022-10-08T20:59:30.124Z,16.42
2022-10-08T21:02:00.234Z,16.68
2022-10-08T21:04:28.671Z,16.62
2022-10-08T21:06:56.476Z,16.98
2022-10-08T21:09:25.579Z,16.84
2022-10-08T21:11:54.374Z,17.05
2022-10-08T21:14:22.814Z,16.77
2022-10-08T21:16:50.728Z,16.89
2022-10-08T21:19:22.191Z,16.94
2022-10-08T21:21:50.638Z,16.90
2022-10-08T21:24:18.874Z,16.97
2022-10-08T21:26:46.774Z,16.70
2022-10-08T21:29:15.525Z,16.44
2022-10-08T21:31:43.449Z,16.65
2022-10-08T21:34:12.724Z,16.76
2022-10-08T21:36:42.655Z,16.86
2022-10-08T21:39:14.736Z,16.80
2022-10-08T21:41:43.856Z,16.85
2022-10-08T21:44:13.545Z,16.60
2022-10-08T21:46:43.582Z,16.38
2022-10-08T21:49:17.890Z,16.20
2022-10-08T21:51:45.815Z,16.30
2022-10-08T21:54:16.226Z,16.12
2022-10-08T21:56:44.595Z,16.30
2022-10-08T21:59:15.911Z,16.42
2022-10-08T22:01:45.939Z,16.68
2022-10-08T22:04:15.234Z,16.44
2022-10-08T22:06:47.081Z,16.40
2022-10-08T22:09:22.225Z,15.89
2022-10-08T22:11:54.333Z,15.63
2022-10-08T22:14:27.518Z,16.10
2022-10-08T22:16:57.307Z,15.91
2022-10-08T22:19:30.077Z,15.81
2022-10-08T22:22:01.177Z,15.92
2022-10-08T22:24:34.627Z,15.80
2022-10-08T22:27:03.789Z,15.59
2022-10-08T22:29:35.263Z,16.14
2022-10-08T22:32:05.449Z,15.96
2022-10-08T22:34:39.406Z,15.71
2022-10-08T22:37:09.362Z,15.85
2022-10-08T22:39:43.664Z,15.31
2022-10-08T22:42:12.849Z,15.61
2022-10-08T22:44:46.404Z,15.53
2022-10-08T22:47:16.196Z,15.12
2022-10-08T22:49:47.765Z,15.36
2022-10-08T22:52:16.902Z,15.45
2022-10-08T22:54:46.965Z,15.62
2022-10-08T22:57:20.381Z,15.65
2022-10-08T22:59:49.354Z,15.48
2022-10-08T23:02:20.005Z,15.21
2022-10-08T23:04:49.730Z,15.40
2022-10-08T23:07:21.565Z,15.50
2022-10-08T23:09:50.807Z,15.53
2022-10-08T23:12:26.633Z,15.39
2022-10-08T23:14:55.966Z,16.02
2022-10-08T23:17:26.996Z,16.10
2022-10-08T23:19:58.584Z,15.66
2022-10-08T23:22:29.135Z,15.77
2022-10-08T23:25:01.950Z,15.70
2022-10-08T23:27:32.563Z,15.73
2022-10-08T23:30:02.444Z,15.64
2022-10-08T23:32:33.431Z,15.50
2022-10-08T23:35:05.415Z,15.35
2022-10-08T23:37:38.663Z,15.58
2022-10-08T23:40:08.979Z,15.78
2022-10-08T23:42:40.399Z,15.83
2022-10-08T23:45:11.408Z,15.86
2022-10-08T23:47:42.113Z,15.79
2022-10-08T23:50:11.761Z,15.68
2022-10-08T23:52:45.082Z,15.89
2022-10-08T23:55:17.727Z,15.59
2022-10-08T23:57:48.727Z,15.43
